sensor_id;sensor_type;location;lat;lon;timestamp;P1;durP1;ratioP1;P2;durP2;ratioP2
2884;SDS011;54691;48.262;11.586;2022-10-18T00:01:28;8.70;;;3.25;;
2884;SDS011;54691;48.262;11.586;2022-10-18T00:08:25;11.50;;;3.10;;
2884;SDS011;54691;48.262;11.586;2022-10-18T00:15:22;7.90;;;2.98;;
2884;SDS011;54691;48.262;11.586;2022-10-18T00:22:19;10.23;;;3.05;;
2884;SDS011;54691;48.262;11.586;2022-10-18T00:29:16;9.10;;;3.10;;
2884;SDS011;54691;48.262;11.586;2022-10-18T00:36:18;12.82;;;3.10;;
2884;SDS011;54691;48.262;11.586;2022-10-18T00:43:14;9.03;;;3.00;;
2884;SDS011;54691;48.262;11.586;2022-10-18T00:50:14;9.13;;;2.87;;
2884;SDS011;54691;48.262;11.586;2022-10-18T00:57:10;10.05;;;3.33;;
2884;SDS011;54691;48.262;11.586;2022-10-18T01:04:08;6.58;;;2.58;;
2884;SDS011;54691;48.262;11.586;2022-10-18T01:11:22;9.38;;;3.37;;
2884;SDS011;54691;48.262;11.586;2022-10-18T01:18:40;16.95;;;3.60;;
2884;SDS011;54691;48.262;11.586;2022-10-18T01:22:13;7.62;;;3.67;;
2884;SDS011;54691;48.262;11.586;2022-10-18T01:32:49;7.80;;;3.83;;
2884;SDS011;54691;48.262;11.586;2022-10-18T01:39:46;7.40;;;3.65;;
2884;SDS011;54691;48.262;11.586;2022-10-18T01:46:43;11.28;;;2.90;;
2884;SDS011;54691;48.262;11.586;2022-10-18T01:53:42;7.72;;;3.00;;
2884;SDS011;54691;48.262;11.586;2022-10-18T02:00:40;8.50;;;3.55;;
2884;SDS011;54691;48.262;11.586;2022-10-18T02:07:39;10.53;;;2.70;;
2884;SDS011;54691;48.262;11.586;2022-10-18T02:14:35;6.10;;;3.22;;
2884;SDS011;54691;48.262;11.586;2022-10-18T02:21:32;9.58;;;3.83;;
2884;SDS011;54691;48.262;11.586;2022-10-18T02:28:30;9.73;;;2.90;;
2884;SDS011;54691;48.262;11.586;2022-10-18T02:35:28;9.08;;;3.65;;
2884;SDS011;54691;48.262;11.586;2022-10-18T02:42:31;8.55;;;3.40;;
2884;SDS011;54691;48.262;11.586;2022-10-18T02:49:24;7.75;;;2.75;;
2884;SDS011;54691;48.262;11.586;2022-10-18T02:56:21;9.03;;;2.90;;
2884;SDS011;54691;48.262;11.586;2022-10-18T03:03:18;12.88;;;3.65;;
2884;SDS011;54691;48.262;11.586;2022-10-18T03:10:15;13.60;;;4.15;;
2884;SDS011;54691;48.262;11.586;2022-10-18T03:17:12;5.35;;;2.90;;
2884;SDS011;54691;48.262;11.586;2022-10-18T03:24:09;7.47;;;2.87;;
2884;SDS011;54691;48.262;11.586;2022-10-18T03:31:05;10.28;;;3.50;;
2884;SDS011;54691;48.262;11.586;2022-10-18T03:38:02;9.83;;;2.92;;
2884;SDS011;54691;48.262;11.586;2022-10-18T03:44:59;6.55;;;2.98;;
2884;SDS011;54691;48.262;11.586;2022-10-18T03:51:56;9.23;;;2.35;;
2884;SDS011;54691;48.262;11.586;2022-10-18T03:58:54;9.88;;;2.58;;
2884;SDS011;54691;48.262;11.586;2022-10-18T04:05:51;11.68;;;2.67;;
2884;SDS011;54691;48.262;11.586;2022-10-18T04:12:48;7.45;;;3.20;;
2884;SDS011;54691;48.262;11.586;2022-10-18T04:19:45;6.05;;;2.75;;
2884;SDS011;54691;48.262;11.586;2022-10-18T04:26:43;5.33;;;3.00;;
2884;SDS011;54691;48.262;11.586;2022-10-18T04:33:40;8.20;;;3.00;;
2884;SDS011;54691;48.262;11.586;2022-10-18T04:40:37;10.35;;;3.40;;
2884;SDS011;54691;48.262;11.586;2022-10-18T04:47:34;11.50;;;4.20;;
2884;SDS011;54691;48.262;11.586;2022-10-18T04:54:31;6.95;;;3.52;;
2884;SDS011;54691;48.262;11.586;2022-10-18T05:01:28;31.30;;;4.55;;
2884;SDS011;54691;48.262;11.586;2022-10-18T05:08:25;13.72;;;3.92;;
2884;SDS011;54691;48.262;11.586;2022-10-18T05:15:22;4.08;;;2.37;;
2884;SDS011;54691;48.262;11.586;2022-10-18T05:22:19;9.85;;;2.72;;
2884;SDS011;54691;48.262;11.586;2022-10-18T05:29:16;9.68;;;3.52;;
2884;SDS011;54691;48.262;11.586;2022-10-18T05:36:13;9.55;;;3.80;;
2884;SDS011;54691;48.262;11.586;2022-10-18T05:43:10;8.33;;;3.90;;
2884;SDS011;54691;48.262;11.586;2022-10-18T05:50:07;5.17;;;2.40;;
2884;SDS011;54691;48.262;11.586;2022-10-18T05:57:04;5.47;;;2.80;;
2884;SDS011;54691;48.262;11.586;2022-10-18T06:04:01;12.85;;;2.90;;
2884;SDS011;54691;48.262;11.586;2022-10-18T06:10:58;8.65;;;2.58;;
2884;SDS011;54691;48.262;11.586;2022-10-18T06:17:55;15.00;;;3.33;;
2884;SDS011;54691;48.262;11.586;2022-10-18T06:24:54;7.35;;;3.30;;
2884;SDS011;54691;48.262;11.586;2022-10-18T06:31:51;4.97;;;3.10;;
2884;SDS011;54691;48.262;11.586;2022-10-18T06:38:47;6.72;;;3.00;;
2884;SDS011;54691;48.262;11.586;2022-10-18T06:45:44;9.58;;;2.72;;
2884;SDS011;54691;48.262;11.586;2022-10-18T06:52:41;7.37;;;2.37;;
2884;SDS011;54691;48.262;11.586;2022-10-18T06:59:38;6.47;;;2.85;;
2884;SDS011;54691;48.262;11.586;2022-10-18T07:06:35;7.60;;;3.35;;
2884;SDS011;54691;48.262;11.586;2022-10-18T07:13:33;7.22;;;2.45;;
2884;SDS011;54691;48.262;11.586;2022-10-18T07:20:30;10.72;;;2.50;;
2884;SDS011;54691;48.262;11.586;2022-10-18T07:27:27;3.50;;;2.30;;
2884;SDS011;54691;48.262;11.586;2022-10-18T07:34:24;9.53;;;2.40;;
2884;SDS011;54691;48.262;11.586;2022-10-18T07:41:21;8.20;;;3.72;;
2884;SDS011;54691;48.262;11.586;2022-10-18T07:48:18;5.95;;;2.55;;
2884;SDS011;54691;48.262;11.586;2022-10-18T07:55:18;4.70;;;2.67;;
2884;SDS011;54691;48.262;11.586;2022-10-18T08:02:15;12.90;;;2.77;;
2884;SDS011;54691;48.262;11.586;2022-10-18T08:09:12;8.25;;;2.20;;
2884;SDS011;54691;48.262;11.586;2022-10-18T12:38:22;2.65;;;1.20;;
2884;SDS011;54691;48.262;11.586;2022-10-18T13:36:55;9.88;;;1.12;;
2884;SDS011;54691;48.262;11.586;2022-10-18T13:48:58;4.83;;;1.47;;
2884;SDS011;54691;48.262;11.586;2022-10-18T14:24:18;2.80;;;1.30;;
2884;SDS011;54691;48.262;11.586;2022-10-18T14:27:46;2.50;;;1.35;;
2884;SDS011;54691;48.262;11.586;2022-10-18T14:34:48;5.15;;;1.37;;
2884;SDS011;54691;48.262;11.586;2022-10-18T14:45:20;5.50;;;0.95;;
2884;SDS011;54691;48.262;11.586;2022-10-18T14:52:24;6.55;;;1.72;;
2884;SDS011;54691;48.262;11.586;2022-10-18T14:59:48;3.70;;;1.17;;
2884;SDS011;54691;48.262;11.586;2022-10-18T15:06:41;2.87;;;1.20;;
2884;SDS011;54691;48.262;11.586;2022-10-18T15:13:53;3.35;;;1.67;;
2884;SDS011;54691;48.262;11.586;2022-10-18T15:17:30;7.90;;;1.85;;
2884;SDS011;54691;48.262;11.586;2022-10-18T15:21:07;4.20;;;1.40;;
2884;SDS011;54691;48.262;11.586;2022-10-18T15:24:41;3.50;;;1.70;;
2884;SDS011;54691;48.262;11.586;2022-10-18T15:31:35;16.00;;;1.98;;
2884;SDS011;54691;48.262;11.586;2022-10-18T15:38:35;10.55;;;2.40;;
2884;SDS011;54691;48.262;11.586;2022-10-18T16:17:10;8.30;;;2.95;;
2884;SDS011;54691;48.262;11.586;2022-10-18T16:20:53;5.50;;;3.00;;
2884;SDS011;54691;48.262;11.586;2022-10-18T16:24:24;7.95;;;3.17;;
2884;SDS011;54691;48.262;11.586;2022-10-18T16:28:12;7.70;;;3.70;;
2884;SDS011;54691;48.262;11.586;2022-10-18T16:31:39;15.30;;;3.80;;
2884;SDS011;54691;48.262;11.586;2022-10-18T16:35:12;7.13;;;3.37;;
2884;SDS011;54691;48.262;11.586;2022-10-18T16:39:00;8.33;;;3.55;;
2884;SDS011;54691;48.262;11.586;2022-10-18T16:46:22;5.90;;;3.08;;
2884;SDS011;54691;48.262;11.586;2022-10-18T16:50:05;7.05;;;3.45;;
2884;SDS011;54691;48.262;11.586;2022-10-18T16:57:38;11.38;;;3.60;;
2884;SDS011;54691;48.262;11.586;2022-10-18T17:05:09;8.80;;;4.10;;
2884;SDS011;54691;48.262;11.586;2022-10-18T17:08:50;7.12;;;3.45;;
2884;SDS011;54691;48.262;11.586;2022-10-18T17:17:00;13.35;;;4.10;;
2884;SDS011;54691;48.262;11.586;2022-10-18T17:20:46;11.28;;;3.65;;
2884;SDS011;54691;48.262;11.586;2022-10-18T17:29:34;14.03;;;4.30;;
2884;SDS011;54691;48.262;11.586;2022-10-18T17:33:39;9.33;;;4.58;;
2884;SDS011;54691;48.262;11.586;2022-10-18T17:37:38;9.40;;;4.58;;
2884;SDS011;54691;48.262;11.586;2022-10-18T18:24:12;16.10;;;7.45;;
2884;SDS011;54691;48.262;11.586;2022-10-18T18:39:57;16.05;;;5.83;;
2884;SDS011;54691;48.262;11.586;2022-10-18T18:47:59;17.87;;;6.28;;
2884;SDS011;54691;48.262;11.586;2022-10-18T19:00:14;15.85;;;7.03;;
2884;SDS011;54691;48.262;11.586;2022-10-18T19:07:16;12.47;;;6.42;;
2884;SDS011;54691;48.262;11.586;2022-10-18T19:14:14;19.50;;;6.35;;
2884;SDS011;54691;48.262;11.586;2022-10-18T19:21:12;15.85;;;6.35;;
2884;SDS011;54691;48.262;11.586;2022-10-18T19:28:09;20.25;;;7.28;;
2884;SDS011;54691;48.262;11.586;2022-10-18T19:35:07;17.12;;;7.05;;
2884;SDS011;54691;48.262;11.586;2022-10-18T19:42:05;17.27;;;6.80;;
2884;SDS011;54691;48.262;11.586;2022-10-18T19:49:03;17.85;;;7.37;;
2884;SDS011;54691;48.262;11.586;2022-10-18T19:56:02;17.85;;;6.78;;
2884;SDS011;54691;48.262;11.586;2022-10-18T20:03:02;18.77;;;7.60;;
2884;SDS011;54691;48.262;11.586;2022-10-18T20:09:59;19.50;;;6.30;;
2884;SDS011;54691;48.262;11.586;2022-10-18T20:17:15;12.70;;;5.50;;
2884;SDS011;54691;48.262;11.586;2022-10-18T20:20:48;17.20;;;6.20;;
2884;SDS011;54691;48.262;11.586;2022-10-18T20:27:47;21.27;;;6.28;;
2884;SDS011;54691;48.262;11.586;2022-10-18T20:31:27;22.10;;;6.40;;
2884;SDS011;54691;48.262;11.586;2022-10-18T20:35:01;22.50;;;6.30;;
2884;SDS011;54691;48.262;11.586;2022-10-18T20:39:03;14.83;;;5.42;;
2884;SDS011;54691;48.262;11.586;2022-10-18T20:46:02;16.35;;;6.60;;
2884;SDS011;54691;48.262;11.586;2022-10-18T20:53:22;19.80;;;7.00;;
2884;SDS011;54691;48.262;11.586;2022-10-18T21:07:42;23.27;;;5.80;;
2884;SDS011;54691;48.262;11.586;2022-10-18T21:14:55;17.42;;;7.15;;
2884;SDS011;54691;48.262;11.586;2022-10-18T21:18:34;20.35;;;8.40;;
2884;SDS011;54691;48.262;11.586;2022-10-18T21:29:46;13.30;;;6.60;;
2884;SDS011;54691;48.262;11.586;2022-10-18T21:50:05;27.70;;;7.85;;
2884;SDS011;54691;48.262;11.586;2022-10-18T23:17:44;23.18;;;7.00;;
2884;SDS011;54691;48.262;11.586;2022-10-18T23:28:19;15.70;;;7.00;;
2884;SDS011;54691;48.262;11.586;2022-10-18T23:35:20;16.17;;;6.87;;
